Time;durP1;ratioP1;P1;durP2;ratioP2;P2;SDS_P1;SDS_P2;PMS_P1;PMS_P2;Temp;Humidity;BMP_temperature;BMP_pressure;BME280_temperature;BME280_humidity;BME280_pressure;Samples;Min_cycle;Max_cycle;Signal;HPM_P1;HPM_P2
2024/01/15 00:03:12;;;;;;;75.53;40.97;;;;;;;;;;12848880;23;20413;-83
2024/01/15 00:08:14;;;;;;;76.95;38.92;;;;;;;;;;12849549;23;20370;-84
2024/01/15 00:13:18;;;;;;;81.35;40.90;;;;;;;;;;12851633;23;20373;-84
2024/01/15 00:18:20;;;;;;;69.32;36.75;;;;;;;;;;12850055;23;20416;-84
2024/01/15 00:23:23;;;;;;;70.70;37.88;;;;;;;;;;12852163;23;20407;-84
2024/01/15 00:28:27;;;;;;;69.55;37.03;;;;;;;;;;12852560;23;20412;-84
2024/01/15 00:33:29;;;;;;;69.65;37.72;;;;;;;;;;12851664;23;20418;-83
2024/01/15 00:38:32;;;;;;;71.03;38.10;;;;;;;;;;12851335;23;20393;-84
2024/01/15 00:43:35;;;;;;;69.90;38.30;;;;;;;;;;12871725;23;20853;-83
2024/01/15 00:48:38;;;;;;;71.88;36.97;;;;;;;;;;12851887;23;20447;-84
2024/01/15 00:53:41;;;;;;;65.20;36.03;;;;;;;;;;12851028;23;20403;-84
2024/01/15 00:58:44;;;;;;;66.47;35.23;;;;;;;;;;12851146;23;20405;-84
2024/01/15 01:03:47;;;;;;;66.37;37.00;;;;;;;;;;12850123;23;20390;-84
2024/01/15 01:08:49;;;;;;;65.65;34.63;;;;;;;;;;12850805;23;20374;-84
2024/01/15 01:13:53;;;;;;;62.80;33.80;;;;;;;;;;12850951;23;20374;-83
2024/01/15 01:18:55;;;;;;;68.22;34.85;;;;;;;;;;12851758;23;20374;-83
2024/01/15 01:23:57;;;;;;;64.35;33.83;;;;;;;;;;12850698;23;20451;-84
2024/01/15 01:29:02;;;;;;;64.70;33.65;;;;;;;;;;12853234;23;20397;-83
2024/01/15 01:34:04;;;;;;;61.40;32.85;;;;;;;;;;12852343;23;20380;-84
2024/01/15 01:39:06;;;;;;;61.88;33.58;;;;;;;;;;12854921;23;20775;-83
2024/01/15 01:44:10;;;;;;;64.75;33.17;;;;;;;;;;12875530;23;20448;-83
2024/01/15 01:49:12;;;;;;;61.42;31.40;;;;;;;;;;12850884;23;20741;-85
2024/01/15 01:54:15;;;;;;;57.37;30.77;;;;;;;;;;12851445;23;21053;-84
2024/01/15 01:59:19;;;;;;;62.80;33.05;;;;;;;;;;12852887;23;20365;-83
2024/01/15 02:04:24;;;;;;;61.33;31.67;;;;;;;;;;12875354;23;20394;-83
2024/01/15 02:09:26;;;;;;;61.83;33.37;;;;;;;;;;12855489;23;20389;-84
2024/01/15 02:14:30;;;;;;;62.33;30.98;;;;;;;;;;12854988;23;20370;-83
2024/01/15 02:19:33;;;;;;;62.03;31.50;;;;;;;;;;12875291;23;20369;-83
2024/01/15 02:24:36;;;;;;;54.78;29.33;;;;;;;;;;12854392;23;20464;-83
2024/01/15 02:29:40;;;;;;;56.03;29.83;;;;;;;;;;12854048;23;20424;-83
2024/01/15 02:34:42;;;;;;;53.97;29.13;;;;;;;;;;12854500;23;20424;-84
2024/01/15 02:39:45;;;;;;;57.87;29.47;;;;;;;;;;12850452;23;20362;-83
2024/01/15 02:44:48;;;;;;;52.50;28.95;;;;;;;;;;12853740;23;20452;-84
2024/01/15 02:49:51;;;;;;;62.25;30.88;;;;;;;;;;12853830;23;20366;-83
2024/01/15 02:54:55;;;;;;;58.10;31.52;;;;;;;;;;12852483;23;20758;-83
2024/01/15 02:59:57;;;;;;;56.97;30.33;;;;;;;;;;12851429;23;20444;-83
2024/01/15 03:05:00;;;;;;;56.67;29.83;;;;;;;;;;12852030;23;20386;-83
2024/01/15 03:10:04;;;;;;;56.70;28.93;;;;;;;;;;12852842;23;20663;-83
2024/01/15 03:15:06;;;;;;;52.70;28.92;;;;;;;;;;12853713;23;20422;-83
2024/01/15 03:20:10;;;;;;;54.43;28.83;;;;;;;;;;12854440;23;20660;-84
2024/01/15 03:25:13;;;;;;;50.97;29.40;;;;;;;;;;12853797;23;20448;-84
2024/01/15 03:30:16;;;;;;;55.90;28.92;;;;;;;;;;12873568;23;20426;-84
2024/01/15 03:35:18;;;;;;;55.10;29.77;;;;;;;;;;12853502;23;20432;-84
2024/01/15 03:40:22;;;;;;;63.10;31.47;;;;;;;;;;12853747;23;20432;-84
2024/01/15 03:45:24;;;;;;;60.20;32.38;;;;;;;;;;12853267;23;20420;-84
2024/01/15 03:50:27;;;;;;;65.25;32.38;;;;;;;;;;12852519;23;20374;-84
2024/01/15 03:55:30;;;;;;;59.95;32.22;;;;;;;;;;12852239;23;20369;-84
2024/01/15 04:00:32;;;;;;;58.03;31.52;;;;;;;;;;12873610;23;20915;-84
2024/01/15 04:05:35;;;;;;;58.75;30.45;;;;;;;;;;12852324;23;20456;-84
2024/01/15 04:10:38;;;;;;;57.83;30.30;;;;;;;;;;12852382;23;20404;-84
2024/01/15 04:15:41;;;;;;;59.10;30.23;;;;;;;;;;12852287;23;20432;-83
2024/01/15 04:20:43;;;;;;;60.05;30.90;;;;;;;;;;12851868;23;20417;-83
2024/01/15 04:25:47;;;;;;;67.97;32.08;;;;;;;;;;12853141;23;20838;-84
2024/01/15 04:30:49;;;;;;;62.40;31.98;;;;;;;;;;12850463;23;20448;-83
2024/01/15 04:35:51;;;;;;;60.07;30.53;;;;;;;;;;12852419;23;20850;-83
2024/01/15 04:40:55;;;;;;;65.07;31.70;;;;;;;;;;12851905;23;20448;-84
2024/01/15 04:45:57;;;;;;;59.80;30.88;;;;;;;;;;12852174;23;20693;-83
2024/01/15 04:50:59;;;;;;;62.20;29.60;;;;;;;;;;12852215;23;20426;-83
2024/01/15 04:56:03;;;;;;;58.55;29.95;;;;;;;;;;12852113;23;20436;-84
2024/01/15 05:01:06;;;;;;;61.65;30.83;;;;;;;;;;12850180;23;20432;-83
2024/01/15 05:06:08;;;;;;;58.42;29.73;;;;;;;;;;12851321;23;20390;-83
2024/01/15 05:11:12;;;;;;;54.47;27.77;;;;;;;;;;12852159;23;20366;-83
2024/01/15 05:16:14;;;;;;;62.93;29.87;;;;;;;;;;12850810;23;20370;-84
2024/01/15 05:21:16;;;;;;;49.53;27.42;;;;;;;;;;12850876;23;20373;-84
2024/01/15 05:26:20;;;;;;;51.80;27.03;;;;;;;;;;12852097;23;20508;-82
2024/01/15 05:31:22;;;;;;;53.40;27.10;;;;;;;;;;12851332;23;20373;-82
2024/01/15 05:36:25;;;;;;;55.95;26.98;;;;;;;;;;12851593;23;20374;-82
2024/01/15 05:41:28;;;;;;;51.47;27.02;;;;;;;;;;12851194;23;20361;-81
2024/01/15 05:46:31;;;;;;;56.78;29.25;;;;;;;;;;12850841;23;20382;-82
2024/01/15 05:51:33;;;;;;;57.20;28.50;;;;;;;;;;12871521;23;20919;-82
2024/01/15 05:56:37;;;;;;;54.67;27.88;;;;;;;;;;12848464;23;20362;-80
2024/01/15 06:01:39;;;;;;;57.20;28.40;;;;;;;;;;12850699;23;20382;-80
2024/01/15 06:06:41;;;;;;;51.10;27.23;;;;;;;;;;12850178;23;20385;-80
2024/01/15 06:11:45;;;;;;;53.25;27.55;;;;;;;;;;12849686;23;20420;-81
2024/01/15 06:16:47;;;;;;;52.08;26.88;;;;;;;;;;12851054;23;20440;-82
2024/01/15 06:21:50;;;;;;;54.03;26.83;;;;;;;;;;12852957;23;20366;-83
2024/01/15 06:26:53;;;;;;;51.10;25.35;;;;;;;;;;12854036;23;20437;-83
2024/01/15 06:31:56;;;;;;;50.67;25.35;;;;;;;;;;12852697;23;20369;-83
2024/01/15 06:36:58;;;;;;;48.95;24.65;;;;;;;;;;12854100;23;20837;-79
2024/01/15 06:42:02;;;;;;;53.37;25.47;;;;;;;;;;12850241;23;20362;-84
2024/01/15 06:47:04;;;;;;;53.53;25.53;;;;;;;;;;12848506;23;20390;-84
2024/01/15 06:52:07;;;;;;;50.63;26.33;;;;;;;;;;12846709;23;20404;-84
2024/01/15 06:57:10;;;;;;;50.80;27.20;;;;;;;;;;12848899;23;20393;-84
2024/01/15 07:02:13;;;;;;;58.38;28.15;;;;;;;;;;12838644;23;20369;-82
2024/01/15 07:07:15;;;;;;;60.47;30.67;;;;;;;;;;12847164;23;20488;-83
2024/01/15 07:12:19;;;;;;;58.65;28.75;;;;;;;;;;12849490;23;20373;-83
2024/01/15 07:17:21;;;;;;;53.22;27.30;;;;;;;;;;12852483;23;20409;-83
2024/01/15 07:22:23;;;;;;;59.40;28.75;;;;;;;;;;12853152;23;20366;-83
2024/01/15 07:27:27;;;;;;;54.92;27.63;;;;;;;;;;12852137;23;20773;-83
2024/01/15 07:32:30;;;;;;;53.22;27.35;;;;;;;;;;12853199;23;20846;-84
2024/01/15 07:37:33;;;;;;;50.33;26.20;;;;;;;;;;12851679;23;20401;-84
2024/01/15 07:42:38;;;;;;;51.33;25.73;;;;;;;;;;12853195;23;20400;-83
2024/01/15 07:47:40;;;;;;;53.43;26.70;;;;;;;;;;12852036;23;20958;-83
2024/01/15 07:52:42;;;;;;;64.40;32.13;;;;;;;;;;12851824;23;20436;-83
2024/01/15 07:57:46;;;;;;;57.07;31.50;;;;;;;;;;12852604;23;20534;-83
2024/01/15 08:02:48;;;;;;;59.20;29.67;;;;;;;;;;12853342;23;20362;-84
2024/01/15 08:07:51;;;;;;;62.03;32.00;;;;;;;;;;12852228;23;20444;-83
2024/01/15 08:12:54;;;;;;;46.85;25.23;;;;;;;;;;12851397;23;20419;-83
2024/01/15 08:17:57;;;;;;;58.40;30.95;;;;;;;;;;12884325;22;20713;-83
2024/01/15 08:22:59;;;;;;;51.47;24.70;;;;;;;;;;12904616;22;20376;-83
2024/01/15 08:28:03;;;;;;;61.88;31.65;;;;;;;;;;12911489;22;20380;-82
2024/01/15 08:33:05;;;;;;;49.22;25.27;;;;;;;;;;12911200;23;20421;-83
2024/01/15 08:38:08;;;;;;;51.03;25.67;;;;;;;;;;12911841;22;20424;-83
2024/01/15 08:43:11;;;;;;;54.05;27.65;;;;;;;;;;12912586;22;20817;-81
2024/01/15 08:48:14;;;;;;;55.03;30.47;;;;;;;;;;12912478;22;20384;-82
2024/01/15 08:53:17;;;;;;;59.85;32.60;;;;;;;;;;12912112;22;20395;-83
2024/01/15 08:58:21;;;;;;;55.17;28.97;;;;;;;;;;12913161;22;20408;-82
2024/01/15 09:03:23;;;;;;;55.00;29.45;;;;;;;;;;12912774;22;20748;-82
2024/01/15 09:08:27;;;;;;;59.25;30.17;;;;;;;;;;12913903;22;20384;-82
2024/01/15 09:13:31;;;;;;;61.55;31.02;;;;;;;;;;12912862;22;20364;-82
2024/01/15 09:18:33;;;;;;;68.53;32.20;;;;;;;;;;12912670;22;20439;-82
2024/01/15 09:23:35;;;;;;;66.35;33.95;;;;;;;;;;12912840;22;20365;-83
2024/01/15 09:28:39;;;;;;;63.03;32.25;;;;;;;;;;12911886;22;20422;-82
2024/01/15 09:33:41;;;;;;;67.35;33.72;;;;;;;;;;12912938;22;20740;-82
2024/01/15 09:38:43;;;;;;;60.63;32.43;;;;;;;;;;12912415;22;20409;-82
2024/01/15 09:43:48;;;;;;;60.72;32.40;;;;;;;;;;12912996;22;20854;-82
2024/01/15 09:48:50;;;;;;;61.08;30.45;;;;;;;;;;12914467;22;20415;-85
2024/01/15 09:53:53;;;;;;;57.17;30.42;;;;;;;;;;12917588;22;20376;-82
2024/01/15 09:58:57;;;;;;;55.30;28.08;;;;;;;;;;12916274;22;20430;-82
2024/01/15 10:04:00;;;;;;;46.25;24.58;;;;;;;;;;12916627;22;20364;-81
2024/01/15 10:09:03;;;;;;;51.60;26.77;;;;;;;;;;12915751;22;20387;-80
2024/01/15 10:14:07;;;;;;;53.33;26.17;;;;;;;;;;12916230;22;20394;-82
2024/01/15 10:19:10;;;;;;;48.33;24.92;;;;;;;;;;12916232;22;20369;-82
2024/01/15 10:24:13;;;;;;;55.15;27.95;;;;;;;;;;12916198;22;20449;-82
2024/01/15 10:29:17;;;;;;;51.13;25.85;;;;;;;;;;12916367;22;20384;-82
2024/01/15 10:34:20;;;;;;;51.90;25.67;;;;;;;;;;12916480;22;20407;-82
2024/01/15 10:39:23;;;;;;;52.83;26.30;;;;;;;;;;12915683;22;20373;-82
2024/01/15 10:44:27;;;;;;;52.30;26.88;;;;;;;;;;12916417;22;20357;-82
2024/01/15 10:49:30;;;;;;;48.58;26.23;;;;;;;;;;12915882;22;20384;-82
2024/01/15 10:54:32;;;;;;;55.00;27.58;;;;;;;;;;12915548;22;20403;-82
2024/01/15 10:59:37;;;;;;;66.45;30.90;;;;;;;;;;12914518;22;20689;-81
2024/01/15 11:04:39;;;;;;;51.77;27.90;;;;;;;;;;12913739;22;20372;-82
2024/01/15 11:09:42;;;;;;;53.35;28.15;;;;;;;;;;12914784;22;20384;-82
2024/01/15 11:14:49;;;;;;;50.60;27.30;;;;;;;;;;12915997;22;20377;-82
2024/01/15 11:19:51;;;;;;;51.97;26.60;;;;;;;;;;12914507;22;20494;-83
2024/01/15 11:24:54;;;;;;;56.80;28.05;;;;;;;;;;12913973;22;21068;-84
2024/01/15 11:30:08;;;;;;;49.70;26.42;;;;;;;;;;12915208;22;20380;-84
2024/01/15 11:35:13;;;;;;;51.40;25.95;;;;;;;;;;12915082;22;25080;-84
2024/01/15 11:40:19;;;;;;;54.33;26.73;;;;;;;;;;12914920;22;20410;-84
2024/01/15 11:45:25;;;;;;;51.03;26.80;;;;;;;;;;12913973;22;20457;-84
2024/01/15 11:50:31;;;;;;;52.92;28.52;;;;;;;;;;12914004;22;20782;-84
2024/01/15 11:55:36;;;;;;;53.88;28.13;;;;;;;;;;12914581;22;20385;-83
2024/01/15 12:00:43;;;;;;;59.08;28.95;;;;;;;;;;12913899;22;20386;-84
2024/01/15 12:05:46;;;;;;;57.73;29.30;;;;;;;;;;12915152;22;20466;-82
2024/01/15 12:10:49;;;;;;;54.37;28.60;;;;;;;;;;12913951;22;21247;-81
2024/01/15 12:15:52;;;;;;;57.47;28.50;;;;;;;;;;12911889;22;20395;-83
2024/01/15 12:20:55;;;;;;;55.40;28.03;;;;;;;;;;12905041;22;20858;-83
2024/01/15 12:25:57;;;;;;;59.50;29.77;;;;;;;;;;12904593;22;20375;-82
2024/01/15 12:31:05;;;;;;;59.30;30.20;;;;;;;;;;12903548;22;20852;-81
2024/01/15 12:36:07;;;;;;;54.92;27.77;;;;;;;;;;12901541;22;20866;-80
2024/01/15 12:41:10;;;;;;;63.87;31.73;;;;;;;;;;12903237;22;20705;-81
2024/01/15 12:46:13;;;;;;;54.03;28.67;;;;;;;;;;12903660;22;20384;-81
2024/01/15 12:51:16;;;;;;;52.53;28.87;;;;;;;;;;12903028;22;20736;-81
2024/01/15 12:56:18;;;;;;;58.30;29.52;;;;;;;;;;12902030;22;20401;-81
2024/01/15 13:01:22;;;;;;;54.58;29.48;;;;;;;;;;12902493;22;20428;-81
2024/01/15 13:06:25;;;;;;;57.47;28.50;;;;;;;;;;12902659;22;20383;-81
2024/01/15 13:11:28;;;;;;;51.60;26.13;;;;;;;;;;12900101;22;20924;-82
2024/01/15 13:16:32;;;;;;;51.63;26.07;;;;;;;;;;12901029;22;20405;-82
2024/01/15 13:21:34;;;;;;;54.60;27.27;;;;;;;;;;12900514;22;20410;-82
2024/01/15 13:26:36;;;;;;;52.42;26.70;;;;;;;;;;12907636;22;20852;-82
2024/01/15 13:31:40;;;;;;;47.60;27.07;;;;;;;;;;12911910;22;20380;-81
2024/01/15 13:36:43;;;;;;;48.88;25.23;;;;;;;;;;12915249;23;20906;-82
2024/01/15 13:41:45;;;;;;;50.30;26.17;;;;;;;;;;12916047;22;20364;-81
2024/01/15 13:46:49;;;;;;;46.95;25.00;;;;;;;;;;12916251;22;20432;-82
2024/01/15 13:51:52;;;;;;;46.50;25.02;;;;;;;;;;12917698;22;20372;-82
2024/01/15 13:56:54;;;;;;;47.35;26.08;;;;;;;;;;12916597;22;20368;-82
2024/01/15 14:01:58;;;;;;;50.10;25.65;;;;;;;;;;12916101;22;20405;-81
2024/01/15 14:07:00;;;;;;;47.53;25.75;;;;;;;;;;12911525;22;21004;-82
2024/01/15 14:12:02;;;;;;;52.60;27.30;;;;;;;;;;12911497;22;20371;-81
2024/01/15 14:17:06;;;;;;;51.53;28.50;;;;;;;;;;12911906;22;20376;-81
2024/01/15 14:22:08;;;;;;;52.17;29.67;;;;;;;;;;12914090;22;20372;-81
2024/01/15 14:27:11;;;;;;;55.13;29.63;;;;;;;;;;12913291;22;20439;-83
2024/01/15 14:32:15;;;;;;;61.88;30.27;;;;;;;;;;12915373;22;20394;-82
2024/01/15 14:37:17;;;;;;;63.22;32.97;;;;;;;;;;12910615;22;20372;-81
2024/01/15 14:42:19;;;;;;;92.45;46.53;;;;;;;;;;12912467;22;20445;-82
2024/01/15 14:47:24;;;;;;;54.15;28.85;;;;;;;;;;12909210;22;20384;-80
2024/01/15 14:52:26;;;;;;;52.90;28.87;;;;;;;;;;12910995;22;20426;-81
2024/01/15 14:57:29;;;;;;;53.20;29.53;;;;;;;;;;12909902;22;20369;-83
2024/01/15 15:02:34;;;;;;;57.67;30.23;;;;;;;;;;12909308;22;20953;-82
2024/01/15 15:07:36;;;;;;;58.42;30.70;;;;;;;;;;12910777;22;20373;-82
2024/01/15 15:12:39;;;;;;;55.35;30.00;;;;;;;;;;12908773;22;20369;-81
2024/01/15 15:17:42;;;;;;;67.70;35.77;;;;;;;;;;12909529;22;20507;-81
2024/01/15 15:22:45;;;;;;;60.42;32.28;;;;;;;;;;12909921;22;20368;-81
2024/01/15 15:27:47;;;;;;;63.25;33.22;;;;;;;;;;12908529;22;20422;-80
2024/01/15 15:32:51;;;;;;;70.63;35.05;;;;;;;;;;12909003;22;20361;-81
2024/01/15 15:37:53;;;;;;;70.33;33.67;;;;;;;;;;12907554;22;20372;-81
2024/01/15 15:42:55;;;;;;;69.75;35.38;;;;;;;;;;12907265;22;20364;-80
2024/01/15 15:47:59;;;;;;;71.45;37.13;;;;;;;;;;12907893;22;20424;-81
2024/01/15 15:53:03;;;;;;;72.47;35.77;;;;;;;;;;12907881;22;20396;-81
2024/01/15 15:58:05;;;;;;;68.85;34.50;;;;;;;;;;12910348;22;20368;-80
2024/01/15 16:03:09;;;;;;;68.15;34.08;;;;;;;;;;12904078;22;20372;-80
2024/01/15 16:08:11;;;;;;;70.95;34.05;;;;;;;;;;12906275;22;20388;-81
2024/01/15 16:13:15;;;;;;;66.63;35.57;;;;;;;;;;12907741;22;20432;-81
2024/01/15 16:18:19;;;;;;;67.17;35.23;;;;;;;;;;12906649;22;20456;-81
2024/01/15 16:23:21;;;;;;;69.40;34.80;;;;;;;;;;12910184;22;20368;-81
2024/01/15 16:28:23;;;;;;;63.85;32.95;;;;;;;;;;12910450;22;20883;-83
2024/01/15 16:33:27;;;;;;;62.42;33.70;;;;;;;;;;12912089;22;20432;-83
2024/01/15 16:38:29;;;;;;;67.07;33.33;;;;;;;;;;12908301;22;20356;-81
2024/01/15 16:43:32;;;;;;;66.90;34.30;;;;;;;;;;12903262;22;20464;-82
2024/01/15 16:48:36;;;;;;;68.47;34.95;;;;;;;;;;12903234;22;20382;-82
2024/01/15 16:53:38;;;;;;;69.80;35.72;;;;;;;;;;12902820;22;20396;-81
2024/01/15 16:58:40;;;;;;;66.53;35.95;;;;;;;;;;12904192;22;20449;-80
2024/01/15 17:03:44;;;;;;;73.77;38.87;;;;;;;;;;12903741;22;20378;-82
2024/01/15 17:08:46;;;;;;;74.32;37.67;;;;;;;;;;12903096;22;20872;-81
2024/01/15 17:13:50;;;;;;;72.07;37.03;;;;;;;;;;12902515;22;20446;-81
2024/01/15 17:18:54;;;;;;;82.73;39.40;;;;;;;;;;12902780;22;20380;-80
2024/01/15 17:23:56;;;;;;;80.73;39.63;;;;;;;;;;12900838;22;20459;-81
2024/01/15 17:29:00;;;;;;;76.47;40.13;;;;;;;;;;12903099;22;20389;-81
2024/01/15 17:34:04;;;;;;;76.90;38.65;;;;;;;;;;12904026;22;20375;-80
2024/01/15 17:39:07;;;;;;;76.20;39.33;;;;;;;;;;12903527;22;20463;-82
2024/01/15 17:44:09;;;;;;;76.00;38.63;;;;;;;;;;12903074;22;20441;-82
2024/01/15 17:49:13;;;;;;;74.23;37.37;;;;;;;;;;12901921;22;20391;-80
2024/01/15 17:54:15;;;;;;;74.90;37.08;;;;;;;;;;12900062;22;20375;-81
2024/01/15 17:59:18;;;;;;;70.13;36.20;;;;;;;;;;12900068;22;20374;-84
2024/01/15 18:04:22;;;;;;;78.55;38.78;;;;;;;;;;12900399;22;20512;-81
2024/01/15 18:09:24;;;;;;;68.03;35.20;;;;;;;;;;12900511;22;20454;-81
2024/01/15 18:14:27;;;;;;;69.68;36.42;;;;;;;;;;12903015;22;20383;-81
2024/01/15 18:19:30;;;;;;;70.00;35.97;;;;;;;;;;12905543;22;20376;-80
2024/01/15 18:24:33;;;;;;;66.87;35.97;;;;;;;;;;12904012;22;20494;-81
2024/01/15 18:29:35;;;;;;;68.47;34.65;;;;;;;;;;12904174;22;20705;-83
2024/01/15 18:34:39;;;;;;;75.85;38.53;;;;;;;;;;12903960;22;20921;-83
2024/01/15 18:39:43;;;;;;;80.85;41.25;;;;;;;;;;12904498;22;20372;-82
2024/01/15 18:44:46;;;;;;;79.45;41.13;;;;;;;;;;12904542;22;20369;-81
2024/01/15 18:49:50;;;;;;;85.97;43.30;;;;;;;;;;12905448;22;20382;-79
2024/01/15 18:54:52;;;;;;;89.85;47.58;;;;;;;;;;12906296;22;21320;-80
2024/01/15 18:59:55;;;;;;;88.33;44.10;;;;;;;;;;12904722;22;20384;-82
2024/01/15 19:04:58;;;;;;;88.57;46.45;;;;;;;;;;12902650;22;20383;-78
2024/01/15 19:10:01;;;;;;;104.57;50.17;;;;;;;;;;12901843;22;20446;-83
2024/01/15 19:15:03;;;;;;;98.63;49.75;;;;;;;;;;12904475;22;20926;-80
2024/01/15 19:20:10;;;;;;;96.57;48.13;;;;;;;;;;12902159;22;20903;-83
2024/01/15 19:25:13;;;;;;;94.75;51.03;;;;;;;;;;12905340;22;20376;-82
2024/01/15 19:30:16;;;;;;;88.88;45.42;;;;;;;;;;12904965;22;20461;-82
2024/01/15 19:35:19;;;;;;;95.13;49.40;;;;;;;;;;12902912;22;20418;-82
2024/01/15 19:40:22;;;;;;;90.87;46.00;;;;;;;;;;12899390;22;20368;-80
2024/01/15 19:45:25;;;;;;;84.13;42.60;;;;;;;;;;12893237;23;20368;-82
2024/01/15 19:50:28;;;;;;;85.85;40.97;;;;;;;;;;12899628;22;20388;-82
2024/01/15 19:55:31;;;;;;;85.00;42.20;;;;;;;;;;12897427;22;20836;-81
2024/01/15 20:00:33;;;;;;;92.97;45.63;;;;;;;;;;12902269;22;20918;-81
2024/01/15 20:05:37;;;;;;;93.22;46.88;;;;;;;;;;12907315;22;20716;-81
2024/01/15 20:10:39;;;;;;;102.90;50.90;;;;;;;;;;12901923;22;20383;-81
2024/01/15 20:15:42;;;;;;;100.43;51.40;;;;;;;;;;12901874;22;20388;-82
2024/01/15 20:20:45;;;;;;;105.30;50.30;;;;;;;;;;12901261;22;20415;-82
2024/01/15 20:25:48;;;;;;;98.90;50.47;;;;;;;;;;12903380;22;20380;-82
2024/01/15 20:30:51;;;;;;;97.33;49.03;;;;;;;;;;12901697;22;20446;-81
2024/01/15 20:35:54;;;;;;;101.60;49.83;;;;;;;;;;12900118;22;20458;-81
2024/01/15 20:40:57;;;;;;;89.00;45.05;;;;;;;;;;12902469;22;20687;-81
2024/01/15 20:45:59;;;;;;;100.63;49.25;;;;;;;;;;12901722;22;20411;-81
2024/01/15 20:51:03;;;;;;;100.70;49.27;;;;;;;;;;12900860;22;20461;-81
2024/01/15 20:56:05;;;;;;;94.35;48.40;;;;;;;;;;12901842;22;20453;-81
2024/01/15 21:01:08;;;;;;;92.95;44.88;;;;;;;;;;12903358;22;20380;-81
2024/01/15 21:06:12;;;;;;;77.83;40.97;;;;;;;;;;12902122;22;20411;-81
2024/01/15 21:11:14;;;;;;;75.67;38.17;;;;;;;;;;12902727;22;20392;-80
2024/01/15 21:16:17;;;;;;;98.43;46.50;;;;;;;;;;12903530;22;20418;-82
2024/01/15 21:21:20;;;;;;;72.63;37.08;;;;;;;;;;12902741;22;20796;-82
2024/01/15 21:26:23;;;;;;;62.95;33.83;;;;;;;;;;12902434;22;20422;-81
2024/01/15 21:31:25;;;;;;;61.40;33.70;;;;;;;;;;12902759;22;20376;-81
2024/01/15 21:36:29;;;;;;;64.30;33.20;;;;;;;;;;12896226;22;20738;-81
2024/01/15 21:41:32;;;;;;;73.95;35.30;;;;;;;;;;12895802;22;20376;-81
2024/01/15 21:46:35;;;;;;;63.83;34.22;;;;;;;;;;12898296;22;20733;-81
2024/01/15 21:51:39;;;;;;;69.78;35.92;;;;;;;;;;12907811;22;20716;-81
2024/01/15 21:56:41;;;;;;;65.22;34.88;;;;;;;;;;12912591;22;20446;-81
2024/01/15 22:01:44;;;;;;;78.00;37.10;;;;;;;;;;12908349;22;20445;-81
2024/01/15 22:06:47;;;;;;;66.38;34.45;;;;;;;;;;12908637;22;20672;-84
2024/01/15 22:11:50;;;;;;;68.18;35.92;;;;;;;;;;12906878;22;20388;-81
2024/01/15 22:16:52;;;;;;;77.03;39.75;;;;;;;;;;12908012;22;20756;-81
2024/01/15 22:21:56;;;;;;;77.40;39.05;;;;;;;;;;12908859;22;20441;-81
2024/01/15 22:26:58;;;;;;;67.95;37.63;;;;;;;;;;12906890;22;20384;-83
2024/01/15 22:32:01;;;;;;;78.95;39.25;;;;;;;;;;12909838;22;20392;-81
2024/01/15 22:37:04;;;;;;;120.35;59.95;;;;;;;;;;12915222;22;20666;-82
2024/01/15 22:42:07;;;;;;;92.33;46.07;;;;;;;;;;12913414;22;20911;-82
2024/01/15 22:47:10;;;;;;;84.40;42.97;;;;;;;;;;12915871;22;20372;-81
2024/01/15 22:52:14;;;;;;;66.22;35.88;;;;;;;;;;12915714;22;20918;-81
2024/01/15 22:57:17;;;;;;;68.20;36.43;;;;;;;;;;12912150;22;20410;-82
2024/01/15 23:02:20;;;;;;;63.88;32.90;;;;;;;;;;12912084;22;20907;-82
2024/01/15 23:07:24;;;;;;;58.65;31.55;;;;;;;;;;12916019;23;20805;-82
2024/01/15 23:12:26;;;;;;;58.93;32.03;;;;;;;;;;12915189;22;20388;-82
2024/01/15 23:17:29;;;;;;;61.17;32.50;;;;;;;;;;12914602;22;20847;-82
2024/01/15 23:22:32;;;;;;;64.43;32.90;;;;;;;;;;12913665;22;20368;-81
2024/01/15 23:27:35;;;;;;;64.43;34.00;;;;;;;;;;12914840;22;20364;-82
2024/01/15 23:32:38;;;;;;;60.38;32.60;;;;;;;;;;12914824;22;20495;-81
2024/01/15 23:37:41;;;;;;;62.03;33.13;;;;;;;;;;12916182;22;20372;-82
2024/01/15 23:42:44;;;;;;;60.50;32.50;;;;;;;;;;12914388;22;20916;-82
2024/01/15 23:48:01;;;;;;;66.20;33.50;;;;;;;;;;12913181;23;20372;-82
2024/01/15 23:53:05;;;;;;;61.95;31.20;;;;;;;;;;12914185;22;20380;-82
2024/01/15 23:58:08;;;;;;;59.33;31.55;;;;;;;;;;12911799;22;20372;-82
